createdAt,value
2017-07-24T00:02:18.149Z,21.88
2017-07-24T00:04:45.783Z,21.82
2017-07-24T00:07:13.399Z,21.87
2017-07-24T00:09:41.087Z,21.96
2017-07-24T00:12:08.725Z,21.97
2017-07-24T00:14:36.331Z,22.01
2017-07-24T00:17:04.059Z,21.98
2017-07-24T00:19:31.668Z,22.01
2017-07-24T00:21:59.274Z,21.94
2017-07-24T00:24:26.931Z,21.90
2017-07-24T00:26:54.533Z,21.82
2017-07-24T00:29:22.142Z,21.72
2017-07-24T00:31:49.831Z,21.65
2017-07-24T00:34:17.474Z,21.56
2017-07-24T00:36:45.086Z,21.54
2017-07-24T00:39:12.750Z,21.61
2017-07-24T00:41:40.386Z,21.61
2017-07-24T00:44:08.020Z,21.61
2017-07-24T00:46:35.709Z,21.60
2017-07-24T00:49:03.338Z,21.62
2017-07-24T00:51:30.962Z,21.52
2017-07-24T00:53:58.654Z,21.43
2017-07-24T00:56:26.282Z,21.37
2017-07-24T00:58:53.896Z,21.40
2017-07-24T01:01:21.579Z,21.38
2017-07-24T01:03:49.211Z,21.44
2017-07-24T01:06:16.828Z,21.52
2017-07-24T01:08:44.530Z,21.47
2017-07-24T01:11:12.142Z,21.56
2017-07-24T01:13:39.763Z,21.54
2017-07-24T01:16:07.440Z,21.44
2017-07-24T01:18:35.084Z,21.35
2017-07-24T01:21:02.705Z,21.31
2017-07-24T01:23:30.404Z,21.29
2017-07-24T01:25:58.018Z,21.26
2017-07-24T01:28:25.638Z,21.25
2017-07-24T01:30:53.338Z,21.24
2017-07-24T01:33:20.956Z,21.27
2017-07-24T01:35:48.645Z,21.24
2017-07-24T01:38:16.302Z,21.19
2017-07-24T01:40:43.900Z,21.13
2017-07-24T01:43:11.537Z,21.12
2017-07-24T01:45:39.234Z,21.14
2017-07-24T01:48:06.870Z,21.15
2017-07-24T01:50:34.494Z,21.08
2017-07-24T01:53:02.170Z,21.03
2017-07-24T01:55:29.784Z,20.98
2017-07-24T01:57:57.400Z,20.87
2017-07-24T02:00:25.110Z,20.77
2017-07-24T02:02:52.735Z,20.67
2017-07-24T02:05:20.357Z,20.66
2017-07-24T02:07:48.030Z,20.80
2017-07-24T02:10:15.721Z,20.86
2017-07-24T02:12:43.348Z,20.79
2017-07-24T02:15:11.042Z,20.80
2017-07-24T02:17:38.663Z,20.82
2017-07-24T02:20:06.363Z,20.73
2017-07-24T02:22:34.047Z,20.62
2017-07-24T02:25:01.684Z,20.65
2017-07-24T02:27:29.318Z,20.56
2017-07-24T02:29:57.017Z,20.53
2017-07-24T02:32:24.638Z,20.53
2017-07-24T02:34:52.252Z,20.55
2017-07-24T02:37:19.920Z,20.57
2017-07-24T02:39:47.549Z,20.58
2017-07-24T02:42:15.183Z,20.73
2017-07-24T02:44:42.869Z,20.75
2017-07-24T02:47:10.487Z,20.73
2017-07-24T02:49:38.092Z,20.59
2017-07-24T02:52:05.754Z,20.59
2017-07-24T02:54:33.380Z,20.62
2017-07-24T02:57:01.011Z,20.66
2017-07-24T02:59:28.673Z,20.70
2017-07-24T03:01:56.292Z,20.67
2017-07-24T03:04:23.917Z,20.61
2017-07-24T03:06:51.602Z,20.63
2017-07-24T03:09:19.192Z,20.58
2017-07-24T03:11:46.803Z,20.62
2017-07-24T03:14:14.477Z,20.64
2017-07-24T03:16:42.081Z,20.62
2017-07-24T03:19:09.705Z,20.69
2017-07-24T03:21:37.775Z,20.79
2017-07-24T03:24:05.503Z,20.85
2017-07-24T03:26:33.198Z,20.92
2017-07-24T03:29:01.138Z,21.03
2017-07-24T03:31:28.827Z,21.12
2017-07-24T03:33:56.545Z,21.15
2017-07-24T03:36:24.541Z,21.18
2017-07-24T03:38:52.227Z,21.21
2017-07-24T03:41:19.951Z,21.21
2017-07-24T03:43:47.959Z,21.30
2017-07-24T03:46:15.812Z,21.48
2017-07-24T03:48:43.586Z,21.75
2017-07-24T03:51:11.357Z,22.23
2017-07-24T03:53:39.021Z,23.20
2017-07-24T03:56:06.729Z,24.16
2017-07-24T03:58:34.755Z,25.25
2017-07-24T04:01:02.616Z,26.08
2017-07-24T04:03:30.403Z,26.87
2017-07-24T04:05:58.353Z,27.52
2017-07-24T04:08:26.213Z,28.22
2017-07-24T04:10:53.810Z,28.73
2017-07-24T04:13:21.546Z,29.07
2017-07-24T04:15:49.266Z,29.52
2017-07-24T04:18:17.073Z,29.80
2017-07-24T04:20:44.728Z,29.66
2017-07-24T04:23:12.607Z,29.54
2017-07-24T04:25:40.474Z,29.89
2017-07-24T04:28:08.093Z,30.37
2017-07-24T04:30:35.824Z,30.65
2017-07-24T04:33:03.510Z,31.10
2017-07-24T04:35:31.528Z,32.17
2017-07-24T04:37:59.400Z,32.52
2017-07-24T04:40:27.239Z,33.33
2017-07-24T04:42:54.923Z,33.42
2017-07-24T04:45:22.996Z,33.72
2017-07-24T04:47:50.677Z,34.68
2017-07-24T04:50:18.527Z,35.38
2017-07-24T04:52:46.523Z,35.16
2017-07-24T04:55:14.268Z,35.50
2017-07-24T04:57:41.934Z,36.07
2017-07-24T05:00:09.975Z,36.46
2017-07-24T05:02:37.843Z,36.49
2017-07-24T05:05:05.754Z,36.54
2017-07-24T05:07:33.797Z,36.68
2017-07-24T05:10:01.642Z,36.72
2017-07-24T05:12:29.385Z,36.59
2017-07-24T05:14:57.302Z,36.77
2017-07-24T05:17:25.119Z,38.17
2017-07-24T05:19:52.812Z,38.06
2017-07-24T05:22:20.595Z,37.90
2017-07-24T05:24:48.330Z,38.47
2017-07-24T05:27:16.311Z,37.83
2017-07-24T05:29:44.380Z,38.52
2017-07-24T05:32:12.262Z,38.92
2017-07-24T05:34:39.990Z,38.92
2017-07-24T05:37:07.996Z,38.91
2017-07-24T05:39:35.689Z,38.84
2017-07-24T05:42:03.321Z,37.99
2017-07-24T05:44:31.200Z,37.98
2017-07-24T05:46:59.258Z,39.07
2017-07-24T05:49:27.103Z,39.29
2017-07-24T05:51:55.161Z,39.00
2017-07-24T05:54:22.978Z,39.59
2017-07-24T05:56:50.695Z,39.85
2017-07-24T05:59:18.392Z,40.22
2017-07-24T06:01:46.055Z,40.29
2017-07-24T06:04:13.723Z,40.57
2017-07-24T06:06:41.743Z,40.60
2017-07-24T06:09:09.451Z,40.83
2017-07-24T06:11:37.175Z,40.46
2017-07-24T06:14:05.153Z,40.32
2017-07-24T06:16:32.860Z,40.59
2017-07-24T06:19:00.504Z,40.41
2017-07-24T06:21:28.577Z,41.58
2017-07-24T06:23:56.248Z,41.39
2017-07-24T06:26:23.915Z,40.96
2017-07-24T06:28:51.632Z,40.91
2017-07-24T06:31:19.273Z,41.45
2017-07-24T06:33:46.910Z,42.50
2017-07-24T06:36:14.586Z,42.76
2017-07-24T06:38:42.227Z,42.63
2017-07-24T06:41:09.857Z,42.97
2017-07-24T06:43:37.535Z,42.98
2017-07-24T06:46:05.152Z,43.84
2017-07-24T06:48:32.773Z,44.28
2017-07-24T06:51:00.437Z,44.72
2017-07-24T06:53:28.048Z,44.88
2017-07-24T06:55:55.672Z,44.81
2017-07-24T06:58:23.360Z,44.69
2017-07-24T07:00:50.975Z,44.67
2017-07-24T07:03:18.601Z,45.11
2017-07-24T07:05:46.287Z,44.94
2017-07-24T07:08:13.906Z,44.93
2017-07-24T07:10:41.516Z,45.18
2017-07-24T07:13:09.177Z,44.98
2017-07-24T07:15:36.841Z,44.55
2017-07-24T07:18:04.460Z,44.36
2017-07-24T07:20:32.122Z,44.35
2017-07-24T07:22:59.731Z,44.60
2017-07-24T07:25:27.356Z,45.04
2017-07-24T07:27:55.081Z,44.72
2017-07-24T07:30:22.706Z,45.13
2017-07-24T07:32:50.359Z,45.18
2017-07-24T07:35:18.134Z,44.49
2017-07-24T07:37:45.757Z,44.90
2017-07-24T07:40:13.368Z,44.91
2017-07-24T07:42:41.062Z,44.61
2017-07-24T07:45:08.676Z,45.62
2017-07-24T07:47:36.350Z,44.66
2017-07-24T07:50:04.107Z,45.23
2017-07-24T07:52:31.716Z,45.98
2017-07-24T07:54:59.331Z,46.05
2017-07-24T07:57:26.990Z,46.26
2017-07-24T07:59:54.590Z,46.60
2017-07-24T08:02:22.206Z,46.49
2017-07-24T08:04:49.861Z,45.34
2017-07-24T08:07:17.446Z,45.55
2017-07-24T08:09:45.080Z,45.39
2017-07-24T08:12:12.733Z,45.78
2017-07-24T08:14:40.352Z,45.19
2017-07-24T08:17:07.959Z,45.86
2017-07-24T08:19:35.640Z,45.12
2017-07-24T08:22:03.237Z,45.66
2017-07-24T08:24:30.846Z,45.93
2017-07-24T08:26:58.519Z,45.11
2017-07-24T08:29:26.364Z,45.37
2017-07-24T08:31:53.969Z,46.06
2017-07-24T08:34:21.627Z,45.88
2017-07-24T08:36:49.256Z,46.60
2017-07-24T08:39:16.866Z,46.61
2017-07-24T08:41:44.552Z,46.01
2017-07-24T08:44:12.163Z,46.50
2017-07-24T08:46:39.772Z,46.00
2017-07-24T08:49:07.448Z,45.65
2017-07-24T08:51:35.062Z,45.42
2017-07-24T08:54:02.679Z,45.89
2017-07-24T08:56:30.353Z,45.89
2017-07-24T08:58:57.980Z,44.46
2017-07-24T09:01:25.587Z,43.70
2017-07-24T09:03:53.247Z,43.12
2017-07-24T09:06:20.861Z,42.99
2017-07-24T09:08:48.485Z,42.81
2017-07-24T09:11:16.142Z,43.52
2017-07-24T09:13:43.758Z,44.61
2017-07-24T09:16:11.380Z,45.43
2017-07-24T09:18:39.038Z,46.21
2017-07-24T09:21:06.647Z,45.70
2017-07-24T09:23:34.257Z,44.20
2017-07-24T09:26:01.935Z,43.72
2017-07-24T09:28:29.551Z,43.97
2017-07-24T09:30:57.190Z,43.75
2017-07-24T09:33:24.862Z,44.06
2017-07-24T09:35:52.454Z,44.28
2017-07-24T09:38:20.050Z,44.57
2017-07-24T09:40:47.707Z,45.25
2017-07-24T09:43:15.335Z,45.07
2017-07-24T09:45:42.936Z,45.56
2017-07-24T09:48:10.591Z,46.26
2017-07-24T09:50:38.198Z,45.28
2017-07-24T09:53:05.806Z,44.96
2017-07-24T09:55:33.453Z,45.28
2017-07-24T09:58:01.059Z,44.87
2017-07-24T10:00:28.676Z,43.44
2017-07-24T10:02:56.353Z,43.01
2017-07-24T10:05:23.959Z,42.25
2017-07-24T10:07:51.580Z,42.26
2017-07-24T10:10:19.230Z,41.98
2017-07-24T10:12:46.826Z,42.34
2017-07-24T10:15:14.440Z,43.30
2017-07-24T10:17:42.111Z,43.63
2017-07-24T10:20:09.734Z,44.00
2017-07-24T10:22:37.335Z,44.22
2017-07-24T10:25:05.028Z,43.76
2017-07-24T10:27:32.648Z,43.33
2017-07-24T10:30:00.247Z,42.54
2017-07-24T10:32:27.932Z,42.44
2017-07-24T10:34:55.571Z,43.48
2017-07-24T10:37:23.166Z,44.66
2017-07-24T10:39:50.822Z,45.19
2017-07-24T10:42:18.416Z,46.01
2017-07-24T10:44:45.998Z,46.51
2017-07-24T10:47:13.659Z,46.27
2017-07-24T10:49:41.264Z,46.41
2017-07-24T10:52:08.863Z,46.72
2017-07-24T10:54:36.544Z,47.50
2017-07-24T10:57:04.153Z,47.42
2017-07-24T10:59:31.755Z,46.72
2017-07-24T11:01:59.413Z,47.23
2017-07-24T11:04:27.000Z,46.82
2017-07-24T11:06:54.711Z,45.54
2017-07-24T11:09:22.387Z,44.40
2017-07-24T11:11:49.979Z,44.51
2017-07-24T11:14:17.580Z,44.79
2017-07-24T11:16:45.239Z,45.60
2017-07-24T11:19:12.863Z,45.62
2017-07-24T11:21:40.462Z,44.84
2017-07-24T11:24:08.131Z,44.36
2017-07-24T11:26:35.745Z,44.05
2017-07-24T11:29:03.332Z,45.07
2017-07-24T11:31:30.983Z,45.57
2017-07-24T11:33:58.660Z,45.93
2017-07-24T11:36:26.254Z,45.51
2017-07-24T11:38:53.929Z,45.28
2017-07-24T11:41:21.529Z,45.63
2017-07-24T11:43:49.148Z,46.31
2017-07-24T11:46:16.834Z,46.01
2017-07-24T11:48:44.446Z,45.95
2017-07-24T11:51:12.068Z,45.06
2017-07-24T11:53:39.721Z,44.55
2017-07-24T11:56:07.337Z,44.62
2017-07-24T11:58:35.011Z,44.10
2017-07-24T12:01:02.659Z,44.02
2017-07-24T12:03:30.284Z,43.78
2017-07-24T12:05:57.901Z,43.79
2017-07-24T12:08:25.573Z,43.82
2017-07-24T12:10:53.193Z,44.96
2017-07-24T12:13:20.795Z,44.37
2017-07-24T12:15:48.458Z,42.37
2017-07-24T12:18:16.069Z,41.33
2017-07-24T12:20:43.686Z,41.78
2017-07-24T12:23:11.352Z,41.60
2017-07-24T12:25:39.019Z,41.32
2017-07-24T12:28:06.633Z,41.80
2017-07-24T12:30:34.302Z,42.77
2017-07-24T12:33:01.922Z,43.29
2017-07-24T12:35:29.575Z,42.61
2017-07-24T12:37:57.231Z,42.88
2017-07-24T12:40:24.825Z,43.09
2017-07-24T12:42:52.425Z,41.99
2017-07-24T12:45:20.101Z,41.86
2017-07-24T12:47:47.727Z,41.21
2017-07-24T12:50:15.326Z,40.64
2017-07-24T12:52:42.997Z,40.24
2017-07-24T12:55:10.622Z,40.02
2017-07-24T12:57:38.239Z,40.01
2017-07-24T13:00:05.986Z,39.80
2017-07-24T13:02:33.587Z,39.56
2017-07-24T13:05:01.197Z,39.34
2017-07-24T13:07:28.873Z,39.23
2017-07-24T13:09:56.480Z,39.13
2017-07-24T13:12:24.104Z,39.20
2017-07-24T13:14:51.775Z,39.03
2017-07-24T13:17:19.380Z,39.09
2017-07-24T13:19:46.991Z,38.59
2017-07-24T13:22:14.642Z,38.83
2017-07-24T13:24:42.242Z,39.05
2017-07-24T13:27:09.900Z,39.26
2017-07-24T13:29:37.501Z,39.11
2017-07-24T13:32:05.116Z,39.27
2017-07-24T13:34:32.794Z,39.41
2017-07-24T13:37:00.528Z,39.15
2017-07-24T13:39:28.143Z,39.29
2017-07-24T13:41:55.842Z,39.61
2017-07-24T13:44:23.467Z,39.76
2017-07-24T13:46:51.121Z,39.79
2017-07-24T13:49:18.795Z,39.75
2017-07-24T13:51:46.395Z,39.42
2017-07-24T13:54:13.987Z,39.41
2017-07-24T13:56:41.644Z,39.12
2017-07-24T13:59:09.250Z,38.72
2017-07-24T14:01:36.852Z,38.57
2017-07-24T14:04:04.543Z,38.55
2017-07-24T14:06:32.162Z,38.45
2017-07-24T14:08:59.778Z,38.44
2017-07-24T14:11:27.492Z,38.35
2017-07-24T14:13:55.091Z,38.21
2017-07-24T14:16:22.720Z,38.08
2017-07-24T14:18:50.389Z,37.86
2017-07-24T14:21:18.008Z,37.73
2017-07-24T14:23:45.639Z,37.44
2017-07-24T14:26:13.305Z,37.06
2017-07-24T14:28:40.897Z,36.95
2017-07-24T14:31:08.516Z,37.04
2017-07-24T14:33:37.088Z,37.12
2017-07-24T14:36:04.686Z,37.17
2017-07-24T14:38:32.332Z,37.29
2017-07-24T14:41:00.022Z,37.42
2017-07-24T14:43:27.623Z,37.50
2017-07-24T14:45:55.230Z,37.53
2017-07-24T14:48:22.886Z,37.49
2017-07-24T14:50:50.500Z,37.33
2017-07-24T14:53:18.102Z,37.20
2017-07-24T14:55:45.851Z,37.07
2017-07-24T14:58:13.464Z,36.64
2017-07-24T15:00:41.073Z,36.60
2017-07-24T15:03:08.722Z,36.25
2017-07-24T15:05:36.316Z,35.95
2017-07-24T15:08:03.929Z,35.42
2017-07-24T15:10:31.594Z,35.26
2017-07-24T15:12:59.194Z,35.05
2017-07-24T15:15:26.790Z,34.73
2017-07-24T15:17:54.461Z,34.37
2017-07-24T15:20:22.066Z,34.34
2017-07-24T15:22:49.678Z,34.32
2017-07-24T15:25:17.330Z,34.15
2017-07-24T15:27:44.930Z,34.06
2017-07-24T15:30:12.528Z,33.82
2017-07-24T15:32:40.233Z,33.51
2017-07-24T15:35:07.837Z,33.50
2017-07-24T15:37:35.451Z,33.52
2017-07-24T15:40:03.112Z,33.26
2017-07-24T15:42:30.717Z,33.14
2017-07-24T15:44:58.326Z,33.27
2017-07-24T15:47:26.002Z,33.32
2017-07-24T15:49:53.608Z,33.42
2017-07-24T15:52:21.245Z,33.41
2017-07-24T15:54:48.925Z,33.49
2017-07-24T15:57:16.612Z,33.58
2017-07-24T15:59:44.238Z,33.71
2017-07-24T16:02:11.897Z,33.67
2017-07-24T16:04:39.492Z,33.45
2017-07-24T16:07:07.107Z,33.07
2017-07-24T16:09:34.797Z,32.47
2017-07-24T16:12:02.973Z,32.30
2017-07-24T16:14:30.578Z,32.48
2017-07-24T16:16:58.249Z,32.55
2017-07-24T16:19:25.870Z,32.24
2017-07-24T16:21:53.477Z,31.99
2017-07-24T16:24:21.127Z,31.99
2017-07-24T16:26:48.737Z,32.02
2017-07-24T16:29:16.386Z,32.15
2017-07-24T16:31:44.048Z,32.22
2017-07-24T16:34:11.676Z,32.31
2017-07-24T16:36:39.305Z,32.05
2017-07-24T16:39:06.986Z,31.95
2017-07-24T16:41:34.620Z,31.87
2017-07-24T16:44:02.373Z,31.80
2017-07-24T16:46:30.042Z,31.76
2017-07-24T16:48:57.780Z,31.67
2017-07-24T16:51:25.399Z,31.68
2017-07-24T16:53:53.079Z,31.64
2017-07-24T16:56:20.702Z,31.54
2017-07-24T16:58:48.365Z,31.54
2017-07-24T17:01:16.042Z,31.50
2017-07-24T17:03:43.666Z,31.12
2017-07-24T17:06:11.277Z,30.68
2017-07-24T17:08:38.941Z,30.48
2017-07-24T17:11:06.555Z,30.36
2017-07-24T17:13:34.159Z,30.21
2017-07-24T17:16:01.843Z,30.20
2017-07-24T17:18:29.456Z,30.10
2017-07-24T17:20:57.049Z,30.18
2017-07-24T17:23:24.709Z,30.27
2017-07-24T17:25:52.318Z,30.18
2017-07-24T17:28:19.918Z,30.05
2017-07-24T17:30:47.587Z,29.78
2017-07-24T17:33:15.189Z,29.78
2017-07-24T17:35:42.809Z,29.74
2017-07-24T17:38:10.469Z,29.55
2017-07-24T17:40:38.102Z,29.40
2017-07-24T17:43:05.707Z,29.20
2017-07-24T17:45:33.363Z,29.09
2017-07-24T17:48:00.970Z,28.92
2017-07-24T17:50:28.636Z,28.88
2017-07-24T17:52:56.300Z,28.83
2017-07-24T17:55:23.889Z,28.69
2017-07-24T17:57:51.485Z,28.55
2017-07-24T18:00:19.174Z,28.47
2017-07-24T18:02:46.771Z,28.44
2017-07-24T18:05:14.375Z,28.36
2017-07-24T18:07:42.038Z,28.33
2017-07-24T18:10:09.641Z,28.35
2017-07-24T18:12:37.237Z,28.44
2017-07-24T18:15:04.909Z,28.34
2017-07-24T18:17:32.540Z,28.20
2017-07-24T18:20:00.166Z,28.10
2017-07-24T18:22:27.828Z,28.10
2017-07-24T18:24:55.442Z,28.00
2017-07-24T18:27:23.069Z,27.85
2017-07-24T18:29:50.747Z,27.78
2017-07-24T18:32:18.338Z,27.77
2017-07-24T18:34:45.953Z,27.67
2017-07-24T18:37:14.539Z,27.66
2017-07-24T18:39:42.173Z,27.62
2017-07-24T18:42:09.796Z,27.51
2017-07-24T18:44:37.466Z,27.45
2017-07-24T18:47:05.087Z,27.42
2017-07-24T18:49:32.736Z,27.39
2017-07-24T18:52:00.402Z,27.29
2017-07-24T18:54:28.026Z,27.27
2017-07-24T18:56:55.697Z,27.32
2017-07-24T18:59:23.360Z,27.34
2017-07-24T19:01:51.047Z,27.20
2017-07-24T19:04:18.663Z,27.13
2017-07-24T19:06:46.337Z,27.08
2017-07-24T19:09:13.947Z,27.06
2017-07-24T19:11:41.570Z,26.99
2017-07-24T19:14:09.312Z,26.95
2017-07-24T19:16:36.933Z,26.86
2017-07-24T19:19:04.534Z,26.89
2017-07-24T19:21:32.185Z,26.90
2017-07-24T19:23:59.837Z,26.88
2017-07-24T19:26:27.466Z,26.89
2017-07-24T19:28:55.159Z,26.87
2017-07-24T19:31:22.908Z,26.86
2017-07-24T19:33:50.537Z,26.79
2017-07-24T19:36:18.215Z,26.73
2017-07-24T19:38:45.811Z,26.63
2017-07-24T19:41:13.423Z,26.55
2017-07-24T19:43:41.082Z,26.52
2017-07-24T19:46:08.699Z,26.45
2017-07-24T19:48:36.337Z,26.34
2017-07-24T19:51:04.038Z,26.24
2017-07-24T19:53:31.642Z,26.22
2017-07-24T19:55:59.254Z,26.15
2017-07-24T19:58:29.323Z,26.10
2017-07-24T20:00:57.055Z,26.09
2017-07-24T20:03:24.657Z,26.10
2017-07-24T20:05:52.320Z,26.11
2017-07-24T20:08:19.917Z,26.08
2017-07-24T20:10:47.511Z,26.02
2017-07-24T20:13:15.153Z,25.96
2017-07-24T20:15:42.749Z,25.92
2017-07-24T20:18:10.412Z,25.88
2017-07-24T20:20:38.078Z,25.80
2017-07-24T20:23:05.712Z,25.70
2017-07-24T20:25:33.317Z,25.83
2017-07-24T20:28:00.976Z,25.80
2017-07-24T20:30:28.580Z,25.76
2017-07-24T20:32:56.313Z,25.77
2017-07-24T20:35:23.974Z,25.67
2017-07-24T20:37:51.578Z,25.66
2017-07-24T20:40:19.175Z,26.20
2017-07-24T20:42:46.952Z,26.60
2017-07-24T20:45:14.542Z,26.88
2017-07-24T20:47:42.146Z,27.05
2017-07-24T20:50:09.847Z,27.22
2017-07-24T20:52:37.491Z,27.50
2017-07-24T20:55:05.083Z,27.91
2017-07-24T20:57:32.727Z,28.04
2017-07-24T21:00:00.373Z,28.08
2017-07-24T21:02:27.992Z,28.19
2017-07-24T21:04:55.812Z,28.33
2017-07-24T21:07:23.418Z,28.36
2017-07-24T21:09:51.188Z,28.49
2017-07-24T21:12:18.981Z,28.53
2017-07-24T21:14:46.531Z,28.50
2017-07-24T21:17:14.078Z,28.47
2017-07-24T21:19:41.798Z,28.44
2017-07-24T21:22:09.348Z,28.46
2017-07-24T21:24:36.910Z,28.44
2017-07-24T21:27:04.519Z,28.33
2017-07-24T21:29:32.075Z,28.28
2017-07-24T21:31:59.827Z,28.29
2017-07-24T21:34:27.449Z,28.27
2017-07-24T21:36:55.395Z,28.10
2017-07-24T21:39:23.113Z,28.06
2017-07-24T21:41:50.921Z,28.04
2017-07-24T21:44:18.647Z,27.67
2017-07-24T21:46:46.662Z,27.40
2017-07-24T21:49:14.686Z,27.47
2017-07-24T21:51:42.503Z,27.48
2017-07-24T21:54:10.365Z,27.37
2017-07-24T21:56:38.188Z,27.48
2017-07-24T21:59:05.990Z,27.77
2017-07-24T22:01:33.650Z,28.01
2017-07-24T22:04:01.588Z,28.28
2017-07-24T22:06:29.507Z,28.30
2017-07-24T22:08:57.322Z,28.09
2017-07-24T22:11:25.291Z,27.88
2017-07-24T22:13:53.195Z,27.76
2017-07-24T22:16:20.925Z,27.57
2017-07-24T22:18:48.914Z,27.20
2017-07-24T22:21:16.657Z,26.96
2017-07-24T22:23:44.649Z,26.75
2017-07-24T22:26:12.717Z,26.51
2017-07-24T22:28:40.601Z,26.45
2017-07-24T22:31:08.451Z,26.26
2017-07-24T22:33:36.395Z,26.35
2017-07-24T22:36:04.388Z,26.21
2017-07-24T22:38:32.273Z,26.01
2017-07-24T22:41:00.274Z,25.90
2017-07-24T22:43:28.064Z,26.02
2017-07-24T22:45:55.877Z,26.10
2017-07-24T22:48:23.900Z,25.90
2017-07-24T22:50:51.812Z,25.97
2017-07-24T22:53:19.535Z,26.16
2017-07-24T22:55:47.525Z,26.25
2017-07-24T22:58:15.412Z,26.48
2017-07-24T23:00:43.069Z,26.72
2017-07-24T23:03:11.144Z,26.84
2017-07-24T23:05:39.220Z,27.12
2017-07-24T23:08:06.936Z,27.38
2017-07-24T23:10:34.804Z,27.60
2017-07-24T23:13:02.818Z,27.70
2017-07-24T23:15:30.536Z,28.02
2017-07-24T23:17:58.550Z,28.27
2017-07-24T23:20:26.211Z,28.27
2017-07-24T23:22:54.081Z,28.30
2017-07-24T23:25:22.152Z,28.31
2017-07-24T23:27:49.813Z,28.28
2017-07-24T23:30:17.679Z,28.36
2017-07-24T23:32:45.683Z,28.35
2017-07-24T23:35:13.525Z,28.43
2017-07-24T23:37:41.342Z,28.39
2017-07-24T23:40:09.333Z,28.48
2017-07-24T23:42:37.076Z,28.54
2017-07-24T23:45:05.068Z,28.65
2017-07-24T23:47:32.952Z,28.72
2017-07-24T23:50:00.678Z,28.63
2017-07-24T23:52:28.671Z,28.51
2017-07-24T23:54:56.638Z,28.48
2017-07-24T23:57:24.624Z,28.39
2017-07-24T23:59:52.470Z,28.35
